Time;durP1;ratioP1;P1;durP2;ratioP2;P2;SDS_P1;SDS_P2;PMS_P1;PMS_P2;Temp;Humidity;BMP_temperature;BMP_pressure;BME280_temperature;BME280_humidity;BME280_pressure;Samples;Min_cycle;Max_cycle;Signal;HPM_P1;HPM_P2
2023/09/14 00:01:56;;;;;;;8.52;2.47;;;;;;;;;;5112110;28;20012;-74
2023/09/14 00:04:21;;;;;;;3.67;2.10;;;;;;;;;;5109457;28;20066;-75
2023/09/14 00:06:49;;;;;;;5.50;2.28;;;;;;;;;;5110307;28;20023;-76
2023/09/14 00:09:15;;;;;;;5.55;2.00;;;;;;;;;;5093427;28;20027;-75
2023/09/14 00:11:46;;;;;;;6.03;2.83;;;;;;;;;;5091681;28;20027;-75
2023/09/14 00:14:12;;;;;;;6.35;2.47;;;;;;;;;;5094391;28;20031;-75
2023/09/14 00:16:38;;;;;;;5.55;2.20;;;;;;;;;;5110851;28;20012;-75
2023/09/14 00:19:04;;;;;;;4.03;2.05;;;;;;;;;;5090757;28;20036;-75
2023/09/14 00:21:32;;;;;;;6.50;2.80;;;;;;;;;;5093317;28;20012;-75
2023/09/14 00:23:58;;;;;;;6.60;2.30;;;;;;;;;;5092536;28;20032;-74
2023/09/14 00:26:25;;;;;;;6.35;2.28;;;;;;;;;;5095872;28;20046;-75
2023/09/14 00:28:51;;;;;;;3.50;1.90;;;;;;;;;;5091399;28;20035;-76
2023/09/14 00:31:17;;;;;;;3.65;1.90;;;;;;;;;;5110637;28;20025;-76
2023/09/14 00:33:43;;;;;;;6.03;2.47;;;;;;;;;;5092748;28;20087;-75
2023/09/14 00:36:11;;;;;;;4.43;1.77;;;;;;;;;;5110305;28;20027;-75
2023/09/14 00:38:40;;;;;;;5.40;2.25;;;;;;;;;;5112193;28;20020;-75
2023/09/14 00:41:06;;;;;;;5.97;2.70;;;;;;;;;;5091894;28;20043;-75
2023/09/14 00:43:34;;;;;;;3.05;1.67;;;;;;;;;;5092426;28;20043;-75
2023/09/14 00:46:00;;;;;;;6.63;2.28;;;;;;;;;;5093302;28;20019;-75
2023/09/14 00:48:28;;;;;;;5.57;2.20;;;;;;;;;;5089797;28;20036;-75
2023/09/14 00:50:54;;;;;;;5.43;2.22;;;;;;;;;;5091730;28;20020;-75
2023/09/14 00:53:20;;;;;;;5.15;2.00;;;;;;;;;;5092106;28;20027;-75
2023/09/14 00:55:46;;;;;;;5.68;2.15;;;;;;;;;;5110366;28;20045;-75
2023/09/14 00:58:15;;;;;;;4.32;2.13;;;;;;;;;;5108973;28;20013;-75
2023/09/14 01:00:42;;;;;;;5.78;2.40;;;;;;;;;;5110039;28;20020;-76
2023/09/14 01:03:09;;;;;;;8.63;2.40;;;;;;;;;;5111113;28;20037;-75
2023/09/14 01:05:38;;;;;;;4.78;2.47;;;;;;;;;;5111004;28;20016;-75
2023/09/14 01:08:06;;;;;;;6.95;2.85;;;;;;;;;;5092848;28;20035;-75
2023/09/14 01:10:34;;;;;;;5.20;2.08;;;;;;;;;;5092865;28;20008;-75
2023/09/14 01:13:00;;;;;;;7.30;2.53;;;;;;;;;;5089701;28;20024;-75
2023/09/14 01:15:29;;;;;;;6.18;2.50;;;;;;;;;;5092189;28;20012;-75
2023/09/14 01:17:55;;;;;;;8.05;2.80;;;;;;;;;;5094419;28;20042;-76
2023/09/14 01:20:21;;;;;;;13.02;2.95;;;;;;;;;;5094407;28;20025;-75
2023/09/14 01:22:50;;;;;;;4.97;2.35;;;;;;;;;;5109662;28;20020;-75
2023/09/14 01:25:23;;;;;;;5.95;2.45;;;;;;;;;;5088936;28;20032;-76
2023/09/14 01:27:49;;;;;;;6.57;2.05;;;;;;;;;;5108104;28;20031;-77
2023/09/14 01:30:15;;;;;;;4.30;2.20;;;;;;;;;;5106530;28;20020;-75
2023/09/14 01:32:44;;;;;;;4.90;2.05;;;;;;;;;;5092290;28;20027;-75
2023/09/14 01:35:10;;;;;;;7.97;3.00;;;;;;;;;;5090432;28;20097;-74
2023/09/14 01:37:36;;;;;;;6.03;2.55;;;;;;;;;;5092078;28;20183;-75
2023/09/14 01:40:06;;;;;;;7.60;2.88;;;;;;;;;;5108898;28;20021;-75
2023/09/14 01:42:32;;;;;;;7.47;2.35;;;;;;;;;;5091793;28;20093;-76
2023/09/14 01:44:58;;;;;;;5.57;2.25;;;;;;;;;;5091068;28;20024;-75
2023/09/14 01:47:26;;;;;;;5.07;2.95;;;;;;;;;;5109037;28;20039;-76
2023/09/14 01:49:55;;;;;;;5.70;2.25;;;;;;;;;;5090694;28;20028;-76
2023/09/14 01:52:21;;;;;;;4.70;2.60;;;;;;;;;;5088616;28;20051;-76
2023/09/14 01:54:47;;;;;;;5.93;2.38;;;;;;;;;;5089125;28;20024;-76
2023/09/14 01:57:13;;;;;;;8.20;2.83;;;;;;;;;;5092727;28;20103;-76
2023/09/14 01:59:39;;;;;;;4.85;2.47;;;;;;;;;;5092991;28;20032;-75
2023/09/14 02:02:05;;;;;;;5.55;2.20;;;;;;;;;;5091420;28;20089;-75
2023/09/14 02:04:31;;;;;;;9.23;2.60;;;;;;;;;;5091177;28;20020;-76
2023/09/14 02:06:57;;;;;;;6.57;2.22;;;;;;;;;;5090061;28;20073;-75
2023/09/14 02:09:25;;;;;;;4.90;2.40;;;;;;;;;;5089511;28;20114;-75
2023/09/14 02:11:51;;;;;;;7.72;2.55;;;;;;;;;;5090695;28;20024;-75
2023/09/14 02:14:19;;;;;;;4.35;2.47;;;;;;;;;;5090965;28;20016;-75
2023/09/14 02:16:45;;;;;;;6.97;2.60;;;;;;;;;;5090529;28;20105;-76
2023/09/14 02:19:14;;;;;;;9.67;2.40;;;;;;;;;;5091160;28;20395;-75
2023/09/14 02:21:43;;;;;;;3.90;2.38;;;;;;;;;;5090964;28;20051;-75
2023/09/14 02:24:11;;;;;;;4.90;2.47;;;;;;;;;;5110762;28;20012;-75
2023/09/14 02:26:37;;;;;;;7.78;2.05;;;;;;;;;;5092710;28;20037;-75
2023/09/14 02:29:03;;;;;;;8.85;2.78;;;;;;;;;;5090863;28;20062;-76
2023/09/14 02:31:29;;;;;;;5.82;2.85;;;;;;;;;;5089948;28;20016;-76
2023/09/14 02:33:55;;;;;;;8.53;2.70;;;;;;;;;;5108969;28;20053;-75
2023/09/14 02:36:22;;;;;;;7.68;2.70;;;;;;;;;;5092559;28;20016;-75
2023/09/14 02:38:51;;;;;;;6.03;2.80;;;;;;;;;;5107828;28;20020;-75
2023/09/14 02:41:17;;;;;;;4.37;2.70;;;;;;;;;;5108246;28;20031;-76
2023/09/14 02:43:43;;;;;;;6.63;2.42;;;;;;;;;;5094773;28;20040;-76
2023/09/14 02:46:09;;;;;;;7.93;2.80;;;;;;;;;;5094178;28;20031;-75
2023/09/14 02:48:35;;;;;;;11.02;3.20;;;;;;;;;;5094563;28;20070;-75
2023/09/14 02:51:02;;;;;;;17.83;3.45;;;;;;;;;;5113449;28;20024;-76
2023/09/14 02:53:28;;;;;;;11.60;3.25;;;;;;;;;;5094099;28;20024;-75
2023/09/14 02:55:55;;;;;;;11.10;3.20;;;;;;;;;;5093665;28;20039;-75
2023/09/14 02:58:23;;;;;;;5.10;2.55;;;;;;;;;;5094135;28;20028;-75
2023/09/14 03:00:49;;;;;;;7.67;3.40;;;;;;;;;;5112348;28;20089;-76
2023/09/14 03:03:15;;;;;;;9.50;3.43;;;;;;;;;;5094053;28;20066;-75
2023/09/14 03:05:41;;;;;;;8.40;3.33;;;;;;;;;;5110119;28;20020;-76
2023/09/14 03:08:09;;;;;;;7.05;2.65;;;;;;;;;;5113990;28;20054;-76
2023/09/14 03:10:36;;;;;;;6.83;2.53;;;;;;;;;;5095810;28;20035;-76
2023/09/14 03:13:01;;;;;;;8.75;2.63;;;;;;;;;;5095128;28;20046;-76
2023/09/14 03:15:28;;;;;;;4.40;1.97;;;;;;;;;;5110041;28;20024;-75
2023/09/14 03:17:53;;;;;;;9.67;3.30;;;;;;;;;;5092917;28;20028;-76
2023/09/14 03:20:20;;;;;;;10.43;3.93;;;;;;;;;;5093034;28;20017;-75
2023/09/14 03:22:46;;;;;;;9.83;3.83;;;;;;;;;;5092243;28;20088;-76
2023/09/14 03:25:12;;;;;;;7.60;2.77;;;;;;;;;;5094378;28;20312;-76
2023/09/14 03:27:38;;;;;;;5.03;2.67;;;;;;;;;;5111081;28;20032;-74
2023/09/14 03:30:05;;;;;;;8.37;3.17;;;;;;;;;;5110975;28;20039;-75
2023/09/14 03:32:33;;;;;;;9.53;3.27;;;;;;;;;;5092982;28;20046;-75
2023/09/14 03:34:59;;;;;;;9.43;2.60;;;;;;;;;;5110638;28;20008;-76
2023/09/14 03:37:25;;;;;;;6.47;3.27;;;;;;;;;;5092304;28;20254;-75
2023/09/14 03:39:51;;;;;;;7.43;3.60;;;;;;;;;;5112036;28;20024;-76
2023/09/14 03:42:17;;;;;;;9.40;2.60;;;;;;;;;;5092633;28;20031;-75
2023/09/14 03:44:43;;;;;;;13.77;3.60;;;;;;;;;;5094468;28;20104;-75
2023/09/14 03:47:09;;;;;;;8.57;2.60;;;;;;;;;;5112760;28;20055;-75
2023/09/14 03:49:35;;;;;;;10.77;2.93;;;;;;;;;;5110519;28;20092;-77
2023/09/14 03:52:01;;;;;;;8.47;2.90;;;;;;;;;;5094522;28;20041;-75
2023/09/14 03:54:27;;;;;;;5.47;2.77;;;;;;;;;;5112242;28;20111;-75
2023/09/14 03:56:53;;;;;;;7.57;2.97;;;;;;;;;;5091509;28;20024;-75
2023/09/14 03:59:21;;;;;;;11.85;3.00;;;;;;;;;;5109977;28;20019;-76
2023/09/14 04:01:47;;;;;;;10.03;3.40;;;;;;;;;;5094337;28;20054;-76
2023/09/14 04:04:13;;;;;;;7.53;3.10;;;;;;;;;;5110607;28;20032;-76
2023/09/14 04:06:40;;;;;;;10.53;3.27;;;;;;;;;;5092030;28;20023;-75
2023/09/14 04:09:06;;;;;;;9.30;3.10;;;;;;;;;;5109816;28;20055;-75
2023/09/14 04:11:32;;;;;;;7.55;3.30;;;;;;;;;;5093743;28;20031;-75
2023/09/14 04:13:59;;;;;;;6.23;2.47;;;;;;;;;;5094350;28;20048;-76
2023/09/14 04:16:28;;;;;;;11.90;3.47;;;;;;;;;;5111861;28;20059;-75
2023/09/14 04:19:00;;;;;;;5.73;3.10;;;;;;;;;;5091468;28;20031;-75
2023/09/14 04:21:27;;;;;;;13.70;3.17;;;;;;;;;;5111816;28;20056;-76
2023/09/14 04:23:53;;;;;;;9.87;3.30;;;;;;;;;;5092490;28;20020;-75
2023/09/14 04:26:19;;;;;;;8.43;2.80;;;;;;;;;;5109567;28;20062;-76
2023/09/14 04:28:47;;;;;;;10.57;2.90;;;;;;;;;;5111010;28;20043;-76
2023/09/14 04:31:13;;;;;;;7.83;2.40;;;;;;;;;;5109199;28;20020;-76
2023/09/14 04:33:41;;;;;;;6.53;2.93;;;;;;;;;;5110518;28;20040;-75
2023/09/14 04:36:07;;;;;;;9.13;2.57;;;;;;;;;;5093460;28;20036;-76
2023/09/14 04:38:37;;;;;;;5.47;2.60;;;;;;;;;;5092754;28;20050;-76
2023/09/14 04:41:06;;;;;;;8.23;3.30;;;;;;;;;;5092835;28;20053;-76
2023/09/14 04:43:32;;;;;;;14.83;3.43;;;;;;;;;;5109536;28;20019;-76
2023/09/14 04:46:01;;;;;;;5.47;3.30;;;;;;;;;;5109984;28;20043;-75
2023/09/14 04:48:29;;;;;;;6.83;2.80;;;;;;;;;;5093167;28;20039;-76
2023/09/14 04:50:56;;;;;;;11.43;3.40;;;;;;;;;;5109469;28;20008;-76
2023/09/14 04:53:23;;;;;;;9.43;3.27;;;;;;;;;;5095229;28;20059;-75
2023/09/14 04:55:49;;;;;;;10.23;3.87;;;;;;;;;;5089845;28;20072;-76
2023/09/14 04:58:18;;;;;;;8.80;3.00;;;;;;;;;;5090845;28;20238;-75
2023/09/14 05:00:47;;;;;;;7.67;2.83;;;;;;;;;;5094608;28;20092;-75
2023/09/14 05:03:13;;;;;;;7.53;2.87;;;;;;;;;;5091550;28;20026;-76
2023/09/14 05:05:39;;;;;;;8.63;3.00;;;;;;;;;;5092547;28;20020;-76
2023/09/14 05:08:08;;;;;;;12.77;3.67;;;;;;;;;;5093629;28;20051;-76
2023/09/14 05:10:34;;;;;;;7.67;3.43;;;;;;;;;;5108597;28;20013;-75
2023/09/14 05:13:00;;;;;;;5.17;3.07;;;;;;;;;;5090444;28;20051;-76
2023/09/14 05:15:28;;;;;;;7.63;3.27;;;;;;;;;;5092434;28;20036;-76
2023/09/14 05:17:54;;;;;;;11.43;3.60;;;;;;;;;;5088481;28;20028;-76
2023/09/14 05:20:20;;;;;;;7.80;3.00;;;;;;;;;;5093842;28;20020;-75
2023/09/14 05:22:46;;;;;;;10.23;4.07;;;;;;;;;;5092180;28;20023;-76
2023/09/14 05:25:12;;;;;;;8.00;4.60;;;;;;;;;;5092464;28;20013;-76
2023/09/14 05:27:39;;;;;;;8.90;3.77;;;;;;;;;;5108353;28;20036;-75
2023/09/14 05:30:08;;;;;;;9.67;3.80;;;;;;;;;;5110995;28;20087;-76
2023/09/14 05:32:38;;;;;;;14.27;4.77;;;;;;;;;;5109365;28;20036;-76
2023/09/14 05:35:06;;;;;;;16.90;4.67;;;;;;;;;;5095686;28;20019;-77
2023/09/14 05:37:32;;;;;;;14.00;4.53;;;;;;;;;;5087796;28;20042;-76
2023/09/14 05:39:58;;;;;;;10.90;4.37;;;;;;;;;;5088380;28;20024;-75
2023/09/14 05:42:24;;;;;;;11.33;4.70;;;;;;;;;;5093188;28;20036;-76
2023/09/14 05:44:50;;;;;;;12.93;6.50;;;;;;;;;;5111241;28;20058;-76
2023/09/14 05:47:16;;;;;;;20.67;9.33;;;;;;;;;;5108690;28;20039;-76
2023/09/14 05:49:47;;;;;;;30.87;11.80;;;;;;;;;;5088609;28;20016;-76
2023/09/14 05:52:16;;;;;;;34.70;11.17;;;;;;;;;;5091592;28;20012;-76
2023/09/14 05:54:42;;;;;;;31.27;14.17;;;;;;;;;;5110880;28;20168;-76
2023/09/14 05:57:08;;;;;;;41.30;17.27;;;;;;;;;;5090847;28;20059;-77
2023/09/14 05:59:35;;;;;;;37.28;15.00;;;;;;;;;;5092766;28;20026;-75
2023/09/14 06:02:03;;;;;;;37.63;15.68;;;;;;;;;;5089227;28;20036;-75
2023/09/14 06:04:29;;;;;;;47.47;19.17;;;;;;;;;;5091109;28;20020;-76
2023/09/14 06:06:55;;;;;;;50.70;20.50;;;;;;;;;;5091853;28;20055;-76
2023/09/14 06:09:21;;;;;;;47.22;20.80;;;;;;;;;;5090761;28;20100;-76
2023/09/14 06:11:47;;;;;;;51.40;21.60;;;;;;;;;;5091587;28;20140;-75
2023/09/14 06:14:17;;;;;;;56.88;22.35;;;;;;;;;;5092734;28;20020;-76
2023/09/14 06:16:45;;;;;;;58.85;25.05;;;;;;;;;;5090256;28;20028;-76
2023/09/14 06:19:13;;;;;;;60.45;26.45;;;;;;;;;;5094213;28;20028;-76
2023/09/14 06:21:40;;;;;;;58.15;28.45;;;;;;;;;;5112555;28;20017;-75
2023/09/14 06:24:06;;;;;;;59.15;28.73;;;;;;;;;;5092726;28;20024;-76
2023/09/14 06:26:34;;;;;;;63.92;29.90;;;;;;;;;;5094977;28;20040;-75
2023/09/14 06:29:00;;;;;;;62.38;29.58;;;;;;;;;;5093685;28;20087;-75
2023/09/14 06:31:26;;;;;;;59.22;30.77;;;;;;;;;;5093780;28;20044;-76
2023/09/14 06:33:52;;;;;;;53.88;28.60;;;;;;;;;;5112346;28;20048;-75
2023/09/14 06:36:18;;;;;;;59.72;29.05;;;;;;;;;;5093063;28;20025;-76
2023/09/14 06:38:45;;;;;;;69.05;33.60;;;;;;;;;;5094785;28;20131;-76
2023/09/14 06:41:12;;;;;;;60.80;31.85;;;;;;;;;;5095292;28;20280;-74
2023/09/14 06:43:39;;;;;;;64.35;34.15;;;;;;;;;;5092764;28;20032;-76
2023/09/14 06:46:05;;;;;;;63.42;35.13;;;;;;;;;;5095512;28;20169;-75
2023/09/14 06:48:31;;;;;;;59.08;31.80;;;;;;;;;;5093231;28;21147;-76
2023/09/14 06:50:57;;;;;;;71.15;35.00;;;;;;;;;;5090288;28;20035;-75
2023/09/14 06:53:26;;;;;;;67.72;33.78;;;;;;;;;;5093091;28;20027;-74
2023/09/14 06:55:52;;;;;;;66.18;33.03;;;;;;;;;;5111062;28;20027;-75
2023/09/14 06:58:20;;;;;;;63.40;33.10;;;;;;;;;;5096157;28;20027;-75
2023/09/14 07:00:46;;;;;;;69.03;35.83;;;;;;;;;;5108789;28;20028;-74
2023/09/14 07:03:12;;;;;;;69.78;34.78;;;;;;;;;;5096251;28;20028;-75
2023/09/14 07:05:38;;;;;;;64.90;35.05;;;;;;;;;;5090494;28;20039;-80
2023/09/14 07:08:05;;;;;;;62.55;33.10;;;;;;;;;;5084138;28;20088;-76
2023/09/14 07:10:31;;;;;;;63.72;33.70;;;;;;;;;;5088194;28;20037;-78
2023/09/14 07:12:57;;;;;;;62.72;34.83;;;;;;;;;;5081667;28;20465;-79
2023/09/14 07:15:23;;;;;;;59.72;34.88;;;;;;;;;;5081591;28;20043;-77
2023/09/14 07:17:49;;;;;;;67.88;34.40;;;;;;;;;;5081440;28;20028;-78
2023/09/14 07:20:15;;;;;;;60.85;34.22;;;;;;;;;;5104030;28;20046;-77
2023/09/14 07:22:41;;;;;;;62.53;34.25;;;;;;;;;;5102650;28;20054;-77
2023/09/14 07:25:08;;;;;;;62.28;33.53;;;;;;;;;;5101104;28;20115;-79
2023/09/14 07:27:34;;;;;;;63.40;35.53;;;;;;;;;;5083220;28;20040;-80
2023/09/14 07:30:00;;;;;;;58.55;35.40;;;;;;;;;;5080129;28;20053;-79
2023/09/14 07:32:27;;;;;;;59.35;35.60;;;;;;;;;;5086883;28;20085;-78
2023/09/14 07:34:57;;;;;;;66.82;38.25;;;;;;;;;;5086434;28;20855;-78
2023/09/14 07:37:23;;;;;;;65.68;37.25;;;;;;;;;;5083860;28;20028;-78
2023/09/14 07:39:49;;;;;;;65.07;37.95;;;;;;;;;;5086464;28;20051;-76
2023/09/14 07:42:15;;;;;;;71.82;40.85;;;;;;;;;;5087850;28;20035;-77
2023/09/14 07:44:41;;;;;;;70.65;40.60;;;;;;;;;;5086449;28;20039;-80
2023/09/14 07:47:07;;;;;;;76.05;40.03;;;;;;;;;;5088685;28;20347;-76
2023/09/14 07:49:33;;;;;;;66.05;38.53;;;;;;;;;;5090000;28;20040;-77
2023/09/14 07:51:59;;;;;;;68.38;37.90;;;;;;;;;;5081906;28;20020;-77
2023/09/14 07:54:25;;;;;;;67.72;36.97;;;;;;;;;;5079553;28;20057;-78
2023/09/14 07:56:51;;;;;;;62.60;35.42;;;;;;;;;;5100528;28;20066;-77
2023/09/14 07:59:17;;;;;;;63.08;35.55;;;;;;;;;;5084330;28;20035;-75
2023/09/14 08:01:43;;;;;;;59.70;36.92;;;;;;;;;;5105258;28;20034;-79
2023/09/14 08:04:09;;;;;;;60.30;33.92;;;;;;;;;;5085914;28;20040;-76
2023/09/14 08:06:35;;;;;;;59.38;36.08;;;;;;;;;;5087407;28;20063;-79
2023/09/14 08:09:02;;;;;;;58.85;35.35;;;;;;;;;;5101940;28;20040;-76
2023/09/14 08:11:28;;;;;;;60.85;35.00;;;;;;;;;;5088906;28;20028;-77
2023/09/14 08:13:54;;;;;;;60.60;34.83;;;;;;;;;;5083000;28;20071;-76
2023/09/14 08:16:20;;;;;;;59.65;33.78;;;;;;;;;;5089795;28;20016;-76
2023/09/14 08:18:47;;;;;;;63.30;35.50;;;;;;;;;;5089305;28;20035;-76
2023/09/14 08:21:13;;;;;;;56.15;33.53;;;;;;;;;;5089924;28;20036;-76
2023/09/14 08:23:39;;;;;;;57.00;33.22;;;;;;;;;;5091236;28;20112;-75
2023/09/14 08:26:06;;;;;;;60.83;35.17;;;;;;;;;;5109581;28;20044;-77
2023/09/14 08:28:32;;;;;;;60.85;35.40;;;;;;;;;;5084037;28;20024;-77
2023/09/14 08:30:58;;;;;;;52.47;31.83;;;;;;;;;;5092725;28;20035;-76
2023/09/14 08:33:24;;;;;;;57.30;33.75;;;;;;;;;;5090971;28;20261;-75
2023/09/14 08:35:50;;;;;;;58.80;35.17;;;;;;;;;;5110186;28;20028;-75
2023/09/14 08:38:17;;;;;;;57.28;36.10;;;;;;;;;;5091463;28;20031;-75
2023/09/14 08:40:43;;;;;;;56.47;34.72;;;;;;;;;;5109565;28;20096;-77
2023/09/14 08:43:14;;;;;;;60.80;36.13;;;;;;;;;;5078409;28;20078;-77
2023/09/14 08:45:40;;;;;;;54.35;32.88;;;;;;;;;;5080980;28;20019;-78
2023/09/14 08:48:06;;;;;;;58.38;34.22;;;;;;;;;;5102132;28;20036;-77
2023/09/14 08:50:34;;;;;;;56.33;34.72;;;;;;;;;;5085244;28;20044;-77
2023/09/14 08:53:00;;;;;;;60.78;32.92;;;;;;;;;;5077882;28;20192;-77
2023/09/14 08:55:30;;;;;;;57.38;33.80;;;;;;;;;;5104681;28;20061;-78
2023/09/14 08:57:56;;;;;;;50.10;32.42;;;;;;;;;;5094093;28;20039;-77
2023/09/14 09:00:25;;;;;;;58.90;33.40;;;;;;;;;;5074977;28;20028;-77
2023/09/14 09:02:52;;;;;;;53.20;32.03;;;;;;;;;;5087462;28;20146;-79
2023/09/14 09:05:19;;;;;;;56.13;32.30;;;;;;;;;;5071520;28;20047;-77
2023/09/14 09:07:47;;;;;;;54.42;31.90;;;;;;;;;;5064742;28;20092;-80
2023/09/14 09:10:20;;;;;;;53.95;30.13;;;;;;;;;;5088168;28;20027;-81
2023/09/14 09:12:47;;;;;;;47.20;30.27;;;;;;;;;;5065853;28;20047;-80
2023/09/14 09:15:14;;;;;;;46.08;30.10;;;;;;;;;;5072180;28;20032;-79
2023/09/14 09:17:40;;;;;;;47.03;28.30;;;;;;;;;;5069511;28;20179;-79
2023/09/14 09:20:21;;;;;;;48.78;31.33;;;;;;;;;;5069647;28;20028;-78
2023/09/14 09:22:47;;;;;;;50.88;30.17;;;;;;;;;;5065017;28;20032;-79
2023/09/14 09:25:13;;;;;;;49.38;31.02;;;;;;;;;;5066926;28;20039;-79
2023/09/14 09:27:40;;;;;;;48.97;30.50;;;;;;;;;;5084190;28;20058;-80
2023/09/14 09:30:08;;;;;;;47.72;31.52;;;;;;;;;;5067752;28;20085;-81
2023/09/14 09:32:34;;;;;;;45.42;29.73;;;;;;;;;;5064522;28;20115;-80
2023/09/14 09:35:15;;;;;;;40.90;28.95;;;;;;;;;;5082603;28;20047;-80
2023/09/14 09:37:41;;;;;;;46.30;30.65;;;;;;;;;;5067163;28;20103;-83
2023/09/14 09:40:19;;;;;;;44.17;28.30;;;18.40;99.90;;;;;;5066254;28;20433;-81
2023/09/14 09:42:46;;;;;;;44.17;27.23;;;17.50;99.90;;;;;;5085372;28;20032;-80
2023/09/14 09:45:13;;;;;;;45.67;30.33;;;17.30;99.90;;;;;;5064785;28;20035;-80
2023/09/14 09:47:39;;;;;;;41.63;28.10;;;17.30;99.90;;;;;;5066008;28;20028;-80
2023/09/14 09:50:10;;;;;;;44.95;29.48;;;17.20;99.90;;;;;;5083416;28;20088;-78
2023/09/14 09:52:40;;;;;;;46.47;29.90;;;17.20;99.90;;;;;;5064944;28;20161;-80
2023/09/14 09:55:06;;;;;;;42.50;29.05;;;17.10;99.90;;;;;;5084784;28;20110;-78
2023/09/14 09:57:36;;;;;;;45.85;29.80;;;17.10;99.90;;;;;;5064857;28;20039;-77
2023/09/14 10:00:12;;;;;;;49.42;30.85;;;17.20;99.90;;;;;;5066391;28;20463;-79
2023/09/14 10:02:39;;;;;;;53.42;32.85;;;17.20;99.90;;;;;;5066813;28;20406;-79
2023/09/14 10:05:05;;;;;;;45.38;29.90;;;17.30;99.90;;;;;;5068032;28;20040;-78
2023/09/14 10:07:41;;;;;;;45.63;30.45;;;17.30;99.90;;;;;;5068713;28;20024;-79
2023/09/14 10:10:10;;;;;;;45.60;29.20;;;17.40;99.90;;;;;;5069100;28;20112;-80
2023/09/14 10:12:41;;;;;;;38.10;24.98;;;17.30;99.90;;;;;;5068424;28;20043;-79
2023/09/14 10:15:08;;;;;;;34.25;22.83;;;17.40;99.90;;;;;;5071361;28;20427;-80
2023/09/14 10:17:34;;;;;;;32.05;21.92;;;17.50;99.90;;;;;;5090767;28;20028;-78
2023/09/14 10:20:11;;;;;;;29.05;22.40;;;17.50;99.90;;;;;;5069710;28;20115;-79
2023/09/14 10:22:41;;;;;;;32.13;21.88;;;17.60;99.90;;;;;;5069305;28;20055;-79
2023/09/14 10:25:08;;;;;;;33.17;22.92;;;17.60;99.90;;;;;;5068643;28;20033;-79
2023/09/14 10:27:34;;;;;;;33.40;21.60;;;17.70;99.90;;;;;;5088771;28;20037;-77
2023/09/14 10:30:06;;;;;;;27.13;20.52;;;17.60;99.90;;;;;;5086114;28;20036;-79
2023/09/14 10:32:36;;;;;;;36.70;21.35;;;17.80;99.90;;;;;;5064836;28;20044;-80
2023/09/14 10:35:05;;;;;;;28.88;20.40;;;17.80;99.90;;;;;;5068684;28;21743;-80
2023/09/14 10:37:33;;;;;;;35.72;22.67;;;17.80;99.90;;;;;;5081476;28;20024;-79
2023/09/14 10:40:01;;;;;;;30.92;21.42;;;17.90;99.90;;;;;;5066359;28;20478;-80
2023/09/14 10:42:27;;;;;;;27.17;19.52;;;17.90;99.90;;;;;;5083790;28;20085;-79
2023/09/14 10:44:53;;;;;;;25.77;17.52;;;18.10;99.90;;;;;;5066128;28;20028;-79
2023/09/14 10:47:25;;;;;;;21.67;15.40;;;18.10;99.90;;;;;;5064170;28;20037;-80
2023/09/14 10:49:51;;;;;;;;;;;18.20;99.90;;;;;;5064974;28;20032;-79
2023/09/14 10:52:28;;;;;;;20.77;13.98;;;18.30;99.90;;;;;;5083684;28;20015;-78
2023/09/14 10:54:55;;;;;;;23.58;15.32;;;18.40;99.90;;;;;;5063794;28;20092;-81
2023/09/14 10:57:23;;;;;;;18.27;13.60;;;18.50;99.90;;;;;;5060834;28;20040;-79
2023/09/14 10:59:49;;;;;;;21.05;12.95;;;18.50;99.90;;;;;;5067576;28;20119;-77
2023/09/14 11:02:37;;;;;;;15.63;11.20;;;18.60;99.90;;;;;;5084138;28;20036;-78
2023/09/14 11:05:19;;;;;;;16.33;11.35;;;18.60;99.90;;;;;;5069882;28;20028;-81
2023/09/14 11:07:49;;;;;;;15.43;11.40;;;18.60;99.90;;;;;;5086587;28;20024;-80
2023/09/14 11:10:17;;;;;;;17.95;12.65;;;18.60;99.90;;;;;;5066673;28;20233;-80
2023/09/14 11:12:46;;;;;;;16.08;11.95;;;18.70;99.90;;;;;;5064068;28;20029;-80
2023/09/14 11:15:22;;;;;;;16.05;11.45;;;18.70;99.90;;;;;;5068474;28;20024;-78
2023/09/14 11:17:57;;;;;;;20.95;12.82;;;18.70;99.90;;;;;;5084948;28;20024;-80
2023/09/14 11:20:22;;;;;;;17.42;12.30;;;18.70;99.90;;;;;;5085664;28;20531;-79
2023/09/14 11:22:49;;;;;;;14.73;10.60;;;18.70;99.90;;;;;;5066747;28;20020;-81
2023/09/14 11:25:28;;;;;;;14.25;10.68;;;18.70;99.90;;;;;;5086604;28;20035;-78
2023/09/14 11:27:57;;;;;;;15.43;10.50;;;18.60;99.90;;;;;;5086934;28;20024;-78
2023/09/14 11:30:24;;;;;;;13.95;10.43;;;18.70;99.90;;;;;;5084985;28;20448;-79
2023/09/14 11:32:52;;;;;;;16.20;11.50;;;18.70;99.90;;;;;;5068825;28;20407;-80
2023/09/14 11:35:18;;;;;;;13.82;10.98;;;18.70;99.90;;;;;;5085083;28;20114;-79
2023/09/14 11:37:45;;;;;;;18.17;11.93;;;18.80;99.90;;;;;;5068948;28;20167;-80
2023/09/14 11:40:15;;;;;;;14.13;10.80;;;18.90;99.90;;;;;;5068653;28;20024;-80
2023/09/14 11:43:21;;;;;;;13.32;10.43;;;18.90;99.90;;;;;;5087854;28;20127;-81
2023/09/14 11:45:55;;;;;;;15.63;10.52;;;18.90;99.90;;;;;;5091307;28;21890;-81
2023/09/14 11:48:20;;;;;;;13.95;10.18;;;18.80;99.90;;;;;;5074028;28;20113;-80
2023/09/14 11:50:51;;;;;;;15.82;10.25;;;18.90;99.90;;;;;;5078757;28;20065;-81
2023/09/14 11:53:21;;;;;;;15.85;11.25;;;18.90;99.90;;;;;;5072083;28;20047;-80
2023/09/14 11:55:51;;;;;;;12.55;9.48;;;18.90;99.90;;;;;;5077698;28;20041;-80
2023/09/14 11:58:21;;;;;;;14.48;9.75;;;18.90;99.90;;;;;;5072252;28;20460;-81
2023/09/14 12:00:49;;;;;;;13.98;8.55;;;18.90;99.90;;;;;;5071006;28;20119;-80
2023/09/14 12:03:15;;;;;;;11.80;8.10;;;18.90;99.90;;;;;;5074309;28;20032;-80
2023/09/14 12:05:41;;;;;;;12.35;8.63;;;18.90;99.90;;;;;;5070641;28;20047;-80
2023/09/14 12:08:19;;;;;;;12.70;7.63;;;18.90;99.90;;;;;;5070373;28;20024;-81
2023/09/14 12:10:52;;;;;;;17.05;7.95;;;18.90;99.90;;;;;;5069440;28;20044;-80
2023/09/14 12:13:18;;;;;;;18.65;8.52;;;18.90;99.90;;;;;;5066682;28;20101;-80
2023/09/14 12:15:45;;;;;;;12.82;7.70;;;19.00;99.90;;;;;;5065729;28;20455;-78
2023/09/14 12:18:16;;;;;;;8.52;6.80;;;19.10;99.90;;;;;;5083749;28;20024;-80
2023/09/14 12:20:44;;;;;;;9.18;6.68;;;19.20;99.90;;;;;;5064467;28;20038;-80
2023/09/14 12:23:11;;;;;;;22.08;7.63;;;19.20;99.90;;;;;;5084772;28;20032;-80
2023/09/14 12:25:41;;;;;;;9.80;7.13;;;19.30;99.90;;;;;;5083764;28;20042;-79
2023/09/14 12:28:10;;;;;;;8.18;6.38;;;19.40;99.90;;;;;;5064945;28;20046;-80
2023/09/14 12:30:36;;;;;;;8.75;6.32;;;19.50;99.90;;;;;;5065451;28;20418;-81
2023/09/14 12:33:03;;;;;;;8.27;5.35;;;19.60;99.90;;;;;;5084389;28;20124;-77
2023/09/14 12:35:32;;;;;;;7.72;5.20;;;19.60;99.90;;;;;;5084197;28;20124;-78
2023/09/14 12:38:04;;;;;;;7.90;4.72;;;19.60;99.90;;;;;;5082288;28;20024;-80
2023/09/14 12:40:37;;;;;;;;;;;19.80;99.90;;;;;;5084336;28;20479;-79
2023/09/14 12:43:03;;;;;;;;;;;19.90;99.90;;;;;;5064346;28;19973;-78
2023/09/14 12:45:33;;;;;;;9.13;5.15;;;19.90;99.90;;;;;;5062163;28;19916;-77
2023/09/14 12:48:04;;;;;;;6.30;4.22;;;19.90;99.90;;;;;;5065430;28;20082;-79
2023/09/14 12:50:32;;;;;;;7.55;4.18;;;19.90;99.90;;;;;;5084851;28;20028;-78
2023/09/14 12:52:58;;;;;;;6.20;4.53;;;20.00;99.90;;;;;;5082823;28;20088;-81
2023/09/14 12:55:25;;;;;;;5.72;3.55;;;20.00;99.90;;;;;;5082234;28;20025;-79
2023/09/14 12:57:52;;;;;;;9.75;3.80;;;20.20;99.90;;;;;;5083913;28;20031;-79
2023/09/14 13:00:27;;;;;;;7.28;3.75;;;20.30;99.90;;;;;;5063901;28;20028;-79
2023/09/14 13:02:53;;;;;;;7.35;4.85;;;20.40;99.90;;;;;;5061944;28;20036;-80
2023/09/14 13:05:23;;;;;;;6.03;4.10;;;20.60;99.90;;;;;;5063907;28;20376;-78
2023/09/14 13:07:51;;;;;;;8.57;4.15;;;20.60;99.90;;;;;;5064264;28;20027;-78
2023/09/14 13:10:21;;;;;;;5.00;3.67;;;21.00;99.90;;;;;;5066032;28;20040;-80
2023/09/14 13:13:09;;;;;;;5.68;3.05;;;22.20;99.90;;;;;;5067207;28;20028;-79
2023/09/14 13:15:39;;;;;;;3.47;2.72;;;24.70;99.90;;;;;;5084028;28;20063;-78
2023/09/14 13:18:09;;;;;;;5.05;3.10;;;26.90;99.90;;;;;;5064028;28;20474;-79
2023/09/14 13:20:49;;;;;;;3.50;2.55;;;28.50;94.00;;;;;;5084080;28;20036;-79
2023/09/14 13:23:18;;;;;;;3.70;2.13;;;29.60;86.30;;;;;;5082134;28;20039;-79
2023/09/14 13:25:44;;;;;;;4.35;2.95;;;30.00;77.00;;;;;;5082876;28;20024;-79
2023/09/14 13:28:11;;;;;;;4.45;2.50;;;29.90;74.50;;;;;;5067679;28;20077;-77
2023/09/14 13:30:37;;;;;;;3.88;2.78;;;29.70;72.70;;;;;;5083438;28;20128;-77
2023/09/14 13:33:03;;;;;;;5.68;2.90;;;29.20;73.20;;;;;;5081681;28;20024;-78
2023/09/14 13:35:30;;;;;;;3.88;2.80;;;28.60;74.30;;;;;;5063060;28;20096;-78
2023/09/14 13:37:59;;;;;;;5.68;3.40;;;28.40;76.40;;;;;;5065052;28;20027;-79
2023/09/14 13:40:29;;;;;;;5.07;3.70;;;28.20;77.60;;;;;;5081701;28;20121;-79
2023/09/14 13:42:59;;;;;;;3.92;3.10;;;28.20;77.30;;;;;;5082814;28;20151;-78
2023/09/14 13:45:31;;;;;;;5.50;2.90;;;28.10;76.70;;;;;;5082792;28;20527;-79
2023/09/14 13:47:57;;;;;;;4.82;3.42;;;27.60;75.80;;;;;;5084382;28;20046;-81
2023/09/14 13:50:23;;;;;;;4.57;3.03;;;27.10;75.90;;;;;;5085357;28;20103;-80
2023/09/14 13:52:52;;;;;;;5.75;3.30;;;26.70;77.40;;;;;;5082782;28;20677;-79
2023/09/14 13:55:18;;;;;;;6.30;2.90;;;26.20;78.30;;;;;;5067453;28;20024;-79
2023/09/14 13:57:45;;;;;;;5.57;3.10;;;25.60;78.70;;;;;;5084425;28;20113;-77